Time;durP1;ratioP1;P1;durP2;ratioP2;P2;SDS_P1;SDS_P2;PMS_P1;PMS_P2;Temp;Humidity;BMP_temperature;BMP_pressure;BME280_temperature;BME280_humidity;BME280_pressure;Samples;Min_cycle;Max_cycle;Signal;HPM_P1;HPM_P2
2022/05/30 00:00:35;;;;;;;5.03;2.10;;;;;;;18.23;42.69;101524.69;5030467;28;20029;-72
2022/05/30 00:03:01;;;;;;;7.03;2.77;;;;;;;18.18;43.41;101530.13;5030799;28;20033;-72
2022/05/30 00:05:29;;;;;;;5.03;2.47;;;;;;;18.09;43.81;101523.38;5033211;28;20539;-72
2022/05/30 00:07:54;;;;;;;6.67;2.70;;;;;;;18.14;42.72;101526.72;5033673;28;20504;-71
2022/05/30 00:10:20;;;;;;;8.87;2.50;;;;;;;18.12;42.68;101525.91;5032670;28;20052;-72
2022/05/30 00:12:45;;;;;;;10.63;3.40;;;;;;;18.32;42.15;101529.72;5028795;28;20396;-73
2022/05/30 00:15:14;;;;;;;7.27;2.30;;;;;;;18.04;43.11;101516.44;5031289;28;20080;-72
2022/05/30 00:17:40;;;;;;;9.30;2.60;;;;;;;17.98;43.72;101517.50;5033960;28;20021;-72
2022/05/30 00:20:07;;;;;;;7.33;2.70;;;;;;;18.15;43.34;101514.38;5029282;28;20036;-72
2022/05/30 00:22:33;;;;;;;5.17;2.53;;;;;;;17.98;43.47;101506.94;5033367;28;20028;-72
2022/05/30 00:24:58;;;;;;;5.67;2.57;;;;;;;17.86;43.41;101499.34;5033673;28;20021;-72
2022/05/30 00:27:23;;;;;;;7.90;3.67;;;;;;;17.93;43.07;101500.94;5029299;28;20461;-72
2022/05/30 00:29:49;;;;;;;5.87;2.90;;;;;;;17.64;43.76;101497.34;5031034;28;20041;-72
2022/05/30 00:32:14;;;;;;;10.07;3.10;;;;;;;17.80;44.17;101501.28;5033747;28;20105;-72
2022/05/30 00:34:40;;;;;;;7.53;3.60;;;;;;;17.99;43.42;101505.16;5031365;28;20029;-72
2022/05/30 00:37:06;;;;;;;12.83;3.70;;;;;;;18.04;43.36;101504.13;5020436;28;20113;-72
2022/05/30 00:39:32;;;;;;;7.90;3.37;;;;;;;18.05;42.95;101504.97;5031567;28;20545;-72
2022/05/30 00:42:16;;;;;;;9.60;3.47;;;;;;;18.25;42.96;101499.06;5030626;28;20045;-72
2022/05/30 00:44:45;;;;;;;12.63;3.20;;;;;;;18.29;42.64;101498.91;5031672;28;20033;-72
2022/05/30 00:47:10;;;;;;;5.33;3.37;;;;;;;18.02;43.00;101500.63;5034364;28;20025;-72
2022/05/30 00:49:38;;;;;;;3.97;3.10;;;;;;;18.13;43.15;101503.84;5030980;28;20100;-72
2022/05/30 00:52:07;;;;;;;7.83;3.37;;;;;;;18.09;42.65;101503.97;5020789;28;20029;-71
2022/05/30 00:54:37;;;;;;;8.50;2.70;;;;;;;17.99;43.03;101500.72;5030607;28;20029;-72
2022/05/30 00:57:20;;;;;;;8.53;3.10;;;;;;;17.97;42.59;101499.94;5031275;28;20033;-72
2022/05/30 01:00:00;;;;;;;6.38;2.90;;;;;;;17.97;43.35;101495.50;5032256;28;20048;-72
2022/05/30 01:02:30;;;;;;;11.17;4.10;;;;;;;17.79;43.43;101493.34;5030747;28;20029;-72
2022/05/30 01:07:42;;;;;;;7.53;3.27;;;;;;;17.58;43.56;101486.94;5032165;28;20080;-72
2022/05/30 01:10:11;;;;;;;6.87;3.63;;;;;;;17.78;42.91;101503.06;5032432;28;20492;-73
2022/05/30 01:12:41;;;;;;;6.47;2.97;;;;;;;17.69;43.23;101492.75;5031144;28;20381;-72
2022/05/30 01:15:11;;;;;;;7.50;3.13;;;;;;;17.58;43.51;101497.50;5032637;28;20056;-73
2022/05/30 01:18:03;;;;;;;11.37;3.40;;;;;;;17.99;42.60;101495.44;5028751;28;20532;-73
2022/05/30 01:20:57;;;;;;;6.38;2.70;;;;;;;18.10;42.23;101488.03;5031476;28;20033;-72
2022/05/30 01:23:46;;;;;;;5.60;3.07;;;;;;;17.84;42.60;101490.59;5016779;28;20024;-73
2022/05/30 01:26:38;;;;;;;4.00;2.77;;;;;;;18.00;43.11;101486.59;5030070;28;20067;-72
2022/05/30 01:29:05;;;;;;;6.07;2.93;;;;;;;17.92;42.53;101480.69;5012736;28;20053;-72
2022/05/30 01:31:31;;;;;;;12.23;3.17;;;;;;;17.96;42.58;101479.69;5059372;28;20029;-72
2022/05/30 01:33:57;;;;;;;7.80;2.90;;;;;;;17.59;43.55;101472.81;5030791;28;20030;-72
2022/05/30 01:36:28;;;;;;;9.10;3.53;;;;;;;17.97;42.62;101476.13;5029727;28;20155;-72
2022/05/30 01:38:54;;;;;;;4.43;3.00;;;;;;;17.44;44.10;101467.03;5029837;28;20102;-72
2022/05/30 01:41:19;;;;;;;4.03;2.80;;;;;;;17.89;43.34;101478.09;5032413;28;20166;-72
2022/05/30 01:43:45;;;;;;;8.07;3.03;;;;;;;17.57;43.85;101466.69;5014348;28;20780;-71
2022/05/30 01:46:14;;;;;;;8.37;3.37;;;;;;;17.72;43.85;101471.56;5019558;28;20029;-73
2022/05/30 01:48:39;;;;;;;3.63;2.60;;;;;;;17.86;43.62;101475.53;5030322;28;20543;-73
2022/05/30 01:51:05;;;;;;;3.43;2.47;;;;;;;18.19;42.41;101464.84;5062636;28;20120;-72
2022/05/30 01:53:30;;;;;;;10.27;3.23;;;;;;;18.31;42.47;101461.81;5027587;28;20033;-73
2022/05/30 01:55:55;;;;;;;6.20;3.17;;;;;;;18.19;43.12;101472.78;5032247;28;20176;-73
2022/05/30 01:58:21;;;;;;;12.47;3.47;;;;;;;18.37;43.21;101464.28;5024245;28;20483;-72
2022/05/30 02:00:47;;;;;;;7.87;3.90;;;;;;;18.44;43.09;101471.09;5029098;28;20401;-72
2022/05/30 02:03:13;;;;;;;4.43;2.30;;;;;;;18.28;43.03;101470.72;5028377;28;20175;-73
2022/05/30 02:05:40;;;;;;;7.10;2.90;;;;;;;18.43;42.87;101472.00;5034263;28;20219;-73
2022/05/30 02:08:07;;;;;;;8.17;3.40;;;;;;;18.35;43.20;101465.22;5030341;28;20254;-72
2022/05/30 02:10:33;;;;;;;5.30;2.77;;;;;;;18.47;43.03;101465.69;5030030;28;20037;-72
2022/05/30 02:12:59;;;;;;;8.27;3.00;;;;;;;18.36;42.92;101459.88;5017693;28;20036;-72
2022/05/30 02:15:24;;;;;;;9.93;2.50;;;;;;;18.51;42.82;101462.97;5025092;28;20108;-72
2022/05/30 02:17:50;;;;;;;5.20;2.63;;;;;;;18.74;42.51;101462.16;5010826;28;20072;-72
2022/05/30 02:20:16;;;;;;;4.73;2.60;;;;;;;18.55;42.45;101461.94;5026901;28;20069;-72
2022/05/30 02:22:43;;;;;;;6.83;2.77;;;;;;;18.87;42.22;101458.19;5027642;28;20559;-72
2022/05/30 02:25:09;;;;;;;5.73;2.83;;;;;;;18.73;42.65;101461.31;5027363;28;20028;-73
2022/05/30 02:27:34;;;;;;;5.43;2.50;;;;;;;18.61;42.58;101461.72;5025951;28;20389;-72
2022/05/30 02:30:00;;;;;;;6.50;2.90;;;;;;;18.85;42.20;101456.50;5027748;28;20045;-72
2022/05/30 02:32:25;;;;;;;3.23;2.23;;;;;;;18.88;42.26;101453.78;5030967;28;20037;-72
2022/05/30 02:37:35;;;;;;;6.83;2.73;;;;;;;18.92;41.80;101460.72;5030999;28;20146;-73
2022/05/30 02:40:01;;;;;;;4.73;3.37;;;;;;;18.96;41.99;101457.03;5059345;28;20025;-72
2022/05/30 02:42:26;;;;;;;4.57;2.73;;;;;;;18.81;42.38;101453.09;5028784;28;20397;-72
2022/05/30 02:44:51;;;;;;;9.40;2.90;;;;;;;19.26;41.26;101451.53;5033201;28;20024;-72
2022/05/30 02:47:17;;;;;;;4.97;2.63;;;;;;;19.04;41.09;101449.69;5031114;28;20108;-72
2022/05/30 02:49:43;;;;;;;5.97;2.40;;;;;;;18.79;41.47;101449.63;5027517;28;20104;-72
2022/05/30 02:52:09;;;;;;;7.93;2.10;;;;;;;18.54;41.92;101453.13;5030343;28;20037;-72
2022/05/30 02:54:34;;;;;;;6.13;2.27;;;;;;;18.48;41.91;101451.53;5028964;28;20091;-72
2022/05/30 02:57:00;;;;;;;10.50;2.23;;;;;;;18.47;41.98;101452.44;5028605;28;20036;-73
2022/05/30 02:59:27;;;;;;;3.13;1.70;;;;;;;18.68;41.10;101447.34;5019830;28;20033;-72
2022/05/30 03:01:52;;;;;;;4.87;2.20;;;;;;;18.40;42.08;101448.28;5027516;28;20099;-72
2022/05/30 03:04:19;;;;;;;5.87;2.37;;;;;;;18.34;42.17;101451.16;5028843;28;20029;-72
2022/05/30 03:06:45;;;;;;;3.63;2.00;;;;;;;18.27;42.85;101449.59;5028807;28;20036;-72
2022/05/30 03:09:12;;;;;;;5.73;2.10;;;;;;;18.25;42.53;101443.50;5029183;28;20030;-72
2022/05/30 03:11:37;;;;;;;3.73;2.30;;;;;;;18.21;42.24;101447.16;5030287;28;20497;-72
2022/05/30 03:14:03;;;;;;;6.90;2.00;;;;;;;18.62;41.03;101448.44;5029472;28;20071;-73
2022/05/30 03:16:29;;;;;;;5.10;1.87;;;;;;;18.08;42.05;101447.56;5030464;28;20056;-72
2022/05/30 03:18:54;;;;;;;4.00;1.90;;;;;;;17.95;43.22;101451.50;5029399;28;20772;-73
2022/05/30 03:21:19;;;;;;;4.13;1.90;;;;;;;17.79;43.38;101444.00;5059531;28;20404;-72
2022/05/30 03:23:45;;;;;;;8.03;2.13;;;;;;;17.83;43.08;101443.91;5031341;28;20033;-73
2022/05/30 03:26:11;;;;;;;8.47;2.13;;;;;;;18.21;41.65;101444.50;5028560;28;20067;-73
2022/05/30 03:28:38;;;;;;;3.73;1.77;;;;;;;17.95;42.67;101446.19;5032629;28;20050;-73
2022/05/30 03:31:07;;;;;;;9.77;2.10;;;;;;;17.81;42.99;101439.53;5030179;28;20112;-73
2022/05/30 03:33:33;;;;;;;6.60;1.90;;;;;;;17.95;42.66;101447.06;5034111;28;20021;-73
2022/05/30 03:35:58;;;;;;;4.37;1.90;;;;;;;17.43;44.03;101444.19;5018223;28;20120;-73
2022/05/30 03:38:23;;;;;;;2.67;1.70;;;;;;;17.87;42.60;101456.13;5032228;28;20121;-73
2022/05/30 03:40:49;;;;;;;7.73;2.03;;;;;;;17.63;43.41;101456.81;5038346;28;20036;-73
2022/05/30 03:43:15;;;;;;;6.20;1.90;;;;;;;17.75;42.56;101450.31;5031948;28;20040;-73
2022/05/30 03:45:42;;;;;;;5.60;2.07;;;;;;;17.79;42.51;101451.94;5033063;28;20432;-73
2022/05/30 03:48:10;;;;;;;4.70;2.50;;;;;;;17.65;42.59;101456.75;5028981;28;20831;-73
2022/05/30 03:50:38;;;;;;;4.20;1.70;;;;;;;17.68;42.37;101454.03;5036443;28;20032;-73
2022/05/30 03:53:06;;;;;;;8.57;1.93;;;;;;;17.71;42.25;101453.94;5031396;28;20041;-73
2022/05/30 03:55:37;;;;;;;8.03;1.77;;;;;;;17.55;42.79;101455.31;5033008;28;20036;-73
2022/05/30 03:58:05;;;;;;;4.47;2.20;;;;;;;17.33;43.66;101448.00;5037670;28;20030;-73
2022/05/30 04:00:32;;;;;;;5.03;1.70;;;;;;;17.25;43.82;101450.00;5019227;28;20116;-73
2022/05/30 04:02:59;;;;;;;6.27;2.17;;;;;;;17.25;44.02;101450.84;5033714;28;20024;-73
2022/05/30 04:05:24;;;;;;;4.73;1.87;;;;;;;17.31;43.56;101455.13;5034863;28;20036;-73
2022/05/30 04:07:50;;;;;;;8.13;2.50;;;;;;;17.31;43.37;101444.56;5014675;28;20473;-73
2022/05/30 04:10:15;;;;;;;5.83;2.37;;;;;;;17.43;43.02;101445.97;5032952;28;20026;-73
2022/05/30 04:12:40;;;;;;;4.73;2.03;;;;;;;17.44;43.34;101437.97;5032861;28;20116;-73
2022/05/30 04:15:08;;;;;;;4.17;1.87;;;;;;;17.32;43.70;101432.19;5031071;28;20030;-74
2022/05/30 04:17:36;;;;;;;7.53;2.27;;;;;;;17.21;44.06;101443.06;5031869;28;20065;-73
2022/05/30 04:20:03;;;;;;;3.53;1.90;;;;;;;17.03;44.99;101441.81;5032261;28;20030;-73
2022/05/30 04:22:29;;;;;;;6.63;2.30;;;;;;;17.24;44.05;101435.03;5041393;28;20037;-73
2022/05/30 04:24:55;;;;;;;3.13;1.70;;;;;;;17.29;44.18;101435.78;5039849;28;20476;-73
2022/05/30 04:27:21;;;;;;;6.77;2.27;;;;;;;17.56;43.08;101438.56;5032247;28;20056;-74
2022/05/30 04:29:46;;;;;;;10.27;2.70;;;;;;;17.39;44.04;101433.75;5031045;28;20409;-73
2022/05/30 04:32:12;;;;;;;8.23;2.00;;;;;;;17.57;43.54;101440.25;5032212;28;20021;-73
2022/05/30 04:34:37;;;;;;;5.10;2.40;;;;;;;17.53;43.77;101443.91;5031700;28;20397;-73
2022/05/30 04:37:04;;;;;;;6.00;2.23;;;;;;;17.05;44.63;101442.59;5031136;28;20037;-73
2022/05/30 04:39:30;;;;;;;4.53;2.13;;;;;;;17.42;44.21;101437.19;5029862;28;20515;-73
2022/05/30 04:41:55;;;;;;;5.80;2.10;;;;;;;17.95;43.49;101440.91;5034747;28;20072;-73
2022/05/30 04:44:21;;;;;;;7.60;2.33;;;;;;;18.56;42.38;101447.75;5030382;28;20116;-73
2022/05/30 04:46:54;;;;;;;4.43;2.17;;;;;;;19.83;39.54;101439.66;5032785;28;20110;-72
2022/05/30 04:49:19;;;;;;;;;;;;;;;21.01;37.26;101424.22;5031521;28;20022;-73
2022/05/30 04:51:44;;;;;;;7.37;1.50;;;;;;;20.92;37.20;101424.63;5033067;28;19917;-72
2022/05/30 04:54:10;;;;;;;4.07;1.37;;;;;;;20.56;37.57;101438.53;5034468;28;20464;-73
2022/05/30 04:56:35;;;;;;;3.70;1.27;;;;;;;20.39;38.31;101437.44;5018856;28;20037;-73
2022/05/30 04:59:00;;;;;;;4.70;1.10;;;;;;;19.93;39.09;101444.63;5031686;28;20033;-73
2022/05/30 05:01:27;;;;;;;4.40;1.77;;;;;;;19.69;39.72;101443.75;5030729;28;20540;-73
2022/05/30 05:03:52;;;;;;;4.87;1.20;;;;;;;19.64;39.89;101441.28;5030516;28;20041;-73
2022/05/30 05:06:20;;;;;;;4.30;1.30;;;;;;;19.55;39.75;101439.88;5031687;28;20033;-73
2022/05/30 05:08:55;;;;;;;4.83;1.10;;;;;;;19.50;40.12;101444.47;5031019;28;20067;-73
2022/05/30 05:11:27;;;;;;;4.77;1.20;;;;;;;19.46;40.16;101446.34;5029612;28;20061;-73
2022/05/30 05:13:54;;;;;;;9.55;1.33;;;;;;;19.54;40.01;101447.88;5031130;28;20040;-73
2022/05/30 05:16:21;;;;;;;4.37;1.43;;;;;;;19.79;39.63;101459.25;5031725;28;20028;-73
2022/05/30 05:18:47;;;;;;;3.97;1.30;;;;;;;20.07;39.46;101450.25;5022631;28;20049;-73
2022/05/30 05:21:18;;;;;;;4.20;1.30;;;;;;;19.95;39.13;101454.25;5030188;28;20116;-73
2022/05/30 05:23:43;;;;;;;3.03;1.40;;;;;;;19.87;40.42;101456.34;5033152;28;20021;-73
2022/05/30 05:26:09;;;;;;;7.10;1.23;;;;;;;20.21;39.10;101455.00;5033230;28;20034;-73
2022/05/30 05:28:35;;;;;;;5.57;1.10;;;;;;;19.56;39.25;101451.31;5031112;28;20476;-73
2022/05/30 05:31:01;;;;;;;6.27;1.20;;;;;;;20.29;39.07;101452.00;5027216;28;20087;-73
2022/05/30 05:33:26;;;;;;;4.57;0.87;;;;;;;18.75;40.03;101454.19;5030196;28;20049;-73
2022/05/30 05:35:52;;;;;;;2.20;1.20;;;;;;;19.36;39.54;101460.00;5030145;28;20104;-73
2022/05/30 05:38:17;;;;;;;5.10;1.20;;;;;;;19.76;39.58;101459.38;5030324;28;20029;-73
2022/05/30 05:40:45;;;;;;;4.50;1.13;;;;;;;20.34;38.79;101450.03;5034712;28;20549;-73
2022/05/30 05:43:11;;;;;;;4.37;1.00;;;;;;;20.61;37.54;101457.81;5031087;28;20125;-73
2022/05/30 05:45:39;;;;;;;1.77;0.70;;;;;;;20.68;37.45;101456.63;5024850;28;20462;-73
2022/05/30 05:48:06;;;;;;;2.60;1.20;;;;;;;19.20;40.05;101454.41;5033437;28;20026;-73
2022/05/30 05:50:31;;;;;;;3.23;0.70;;;;;;;19.22;38.44;101456.09;5030717;28;20079;-73
2022/05/30 05:52:57;;;;;;;3.80;0.83;;;;;;;19.74;38.43;101463.88;5030678;28;20025;-73
2022/05/30 05:55:23;;;;;;;5.77;0.80;;;;;;;19.45;37.74;101459.66;5031634;28;20389;-73
2022/05/30 05:57:49;;;;;;;2.43;0.73;;;;;;;19.81;38.02;101473.38;5032776;28;20468;-72
2022/05/30 06:00:16;;;;;;;4.80;1.40;;;;;;;19.96;37.81;101471.03;5030159;28;20025;-73
2022/05/30 06:02:41;;;;;;;7.63;1.57;;;;;;;20.36;36.89;101473.88;5043742;28;20033;-72
2022/05/30 06:05:09;;;;;;;2.30;0.90;;;;;;;20.11;37.73;101473.09;5020178;28;20105;-73
2022/05/30 06:07:36;;;;;;;4.40;0.73;;;;;;;20.04;37.74;101473.38;5029103;28;20500;-72
2022/05/30 06:10:06;;;;;;;7.87;1.70;;;;;;;20.24;37.20;101480.56;5027347;28;20068;-72
2022/05/30 06:12:34;;;;;;;4.87;0.80;;;;;;;20.27;37.41;101475.13;5012306;28;20093;-73
2022/05/30 06:15:00;;;;;;;5.33;1.10;;;;;;;19.95;37.33;101472.81;5053663;28;20017;-73
2022/05/30 06:17:25;;;;;;;4.10;0.97;;;;;;;19.79;36.44;101472.50;5031454;28;20091;-73
2022/05/30 06:19:50;;;;;;;2.97;0.60;;;;;;;20.56;35.89;101475.72;5028705;28;20037;-73
2022/05/30 06:22:16;;;;;;;3.80;0.90;;;;;;;22.31;33.26;101471.38;5030845;28;20040;-73
2022/05/30 06:24:41;;;;;;;1.05;0.38;;;;;;;23.97;30.99;101469.84;5030969;28;20462;-73
2022/05/30 06:27:07;;;;;;;5.55;1.02;;;;;;;24.97;28.51;101456.97;5023931;28;20671;-72
2022/05/30 06:29:33;;;;;;;4.35;0.60;;;;;;;25.87;26.71;101463.81;5034240;28;20616;-72
2022/05/30 06:31:59;;;;;;;3.63;0.57;;;;;;;26.12;26.77;101461.38;5030349;28;20389;-73
2022/05/30 06:34:25;;;;;;;3.45;0.82;;;;;;;28.15;25.21;101458.91;5029540;28;20021;-73
2022/05/30 06:36:50;;;;;;;5.55;0.98;;;;;;;28.80;23.74;101460.25;5031650;28;20029;-72
2022/05/30 06:39:17;;;;;;;7.40;2.00;;;;;;;28.22;24.91;101473.59;5030158;28;20389;-73
2022/05/30 06:41:44;;;;;;;5.32;0.80;;;;;;;27.58;23.70;101475.50;5029503;28;20029;-72
2022/05/30 06:44:10;;;;;;;5.32;0.73;;;;;;;28.87;22.33;101469.56;5030825;28;20040;-72
2022/05/30 06:46:37;;;;;;;2.50;0.60;;;;;;;29.03;23.17;101473.75;5030329;28;20480;-72
2022/05/30 06:49:04;;;;;;;6.05;0.70;;;;;;;27.79;22.84;101469.53;5032908;28;20028;-73
2022/05/30 06:51:34;;;;;;;2.88;0.50;;;;;;;29.75;23.21;101464.47;5035402;28;20036;-72
2022/05/30 06:53:59;;;;;;;4.30;0.73;;;;;;;27.25;22.97;101468.84;5030014;28;20449;-73
2022/05/30 06:56:28;;;;;;;1.20;0.40;;;;;;;28.90;22.14;101466.63;5029926;28;20043;-72
2022/05/30 06:58:54;;;;;;;1.58;0.57;;;;;;;30.23;21.33;101463.25;5025359;28;20029;-73
2022/05/30 07:01:23;;;;;;;4.85;0.93;;;;;;;31.44;20.17;101465.44;5028741;28;20037;-72
2022/05/30 07:03:48;;;;;;;2.80;0.50;;;;;;;28.93;22.32;101477.16;5034590;28;20485;-72
2022/05/30 07:06:20;;;;;;;3.83;0.50;;;;;;;27.17;22.39;101476.59;5036148;28;20035;-72
2022/05/30 07:08:46;;;;;;;4.68;0.45;;;;;;;28.73;21.70;101475.16;5035127;28;20032;-72
2022/05/30 07:11:15;;;;;;;2.90;0.50;;;;;;;29.20;23.08;101475.13;5035609;28;20033;-72
2022/05/30 07:13:42;;;;;;;2.55;0.52;;;;;;;28.40;22.30;101472.22;5037042;28;20040;-72
2022/05/30 07:16:09;;;;;;;4.45;0.57;;;;;;;29.25;20.54;101468.41;5033730;28;20105;-72
2022/05/30 07:18:34;;;;;;;4.00;0.80;;;;;;;30.96;20.57;101466.88;5033552;28;20049;-72
2022/05/30 07:21:03;;;;;;;1.45;0.45;;;;;;;30.14;19.40;101470.25;5034555;28;20133;-72
2022/05/30 07:23:29;;;;;;;2.33;0.60;;;;;;;29.94;22.80;101464.69;5032422;28;20425;-72
2022/05/30 07:26:00;;;;;;;2.00;0.45;;;;;;;29.60;22.71;101466.56;5031025;28;20132;-72
2022/05/30 07:28:30;;;;;;;3.67;0.50;;;;;;;27.59;21.95;101477.22;5031254;28;20025;-71
2022/05/30 07:31:04;;;;;;;3.67;0.70;;;;;;;28.51;22.32;101473.22;5029954;28;20266;-71
2022/05/30 07:33:29;;;;;;;2.83;0.70;;;;;;;29.22;24.11;101467.75;5034484;28;20053;-71
2022/05/30 07:35:55;;;;;;;2.67;0.50;;;;;;;29.24;20.67;101469.38;5037187;28;20122;-71
2022/05/30 07:38:21;;;;;;;1.27;0.20;;;;;;;28.51;21.14;101473.22;5033271;28;20080;-71
2022/05/30 07:40:47;;;;;;;1.73;0.40;;;;;;;29.26;19.69;101472.84;5032469;28;20061;-71
2022/05/30 07:43:12;;;;;;;2.25;0.57;;;;;;;27.04;21.91;101475.75;5025279;28;20053;-72
2022/05/30 07:45:38;;;;;;;4.55;0.60;;;;;;;26.73;23.20;101477.88;5031034;28;20338;-72
2022/05/30 07:48:04;;;;;;;1.90;0.50;;;;;;;27.91;21.44;101474.00;5034454;28;20453;-72
2022/05/30 07:50:30;;;;;;;4.35;0.70;;;;;;;28.01;21.81;101473.38;5035529;28;20032;-71
2022/05/30 07:52:55;;;;;;;4.07;0.40;;;;;;;27.15;22.66;101467.81;5031554;28;20036;-72
2022/05/30 07:55:21;;;;;;;3.22;0.82;;;;;;;27.36;23.52;101465.44;5033034;28;20029;-71
2022/05/30 07:57:52;;;;;;;5.53;0.75;;;;;;;25.02;25.99;101478.94;5034209;28;20469;-71
2022/05/30 08:00:20;;;;;;;3.40;0.57;;;;;;;22.74;30.23;101489.72;5033501;28;20035;-71
2022/05/30 08:02:45;;;;;;;3.22;0.38;;;;;;;20.41;33.10;101498.44;5032404;28;20037;-71
2022/05/30 08:05:12;;;;;;;2.17;0.40;;;;;;;21.31;32.78;101495.56;5033904;28;20060;-72
2022/05/30 08:07:39;;;;;;;1.80;0.32;;;;;;;21.95;32.36;101488.22;5032639;28;20040;-71
2022/05/30 08:10:06;;;;;;;1.20;0.40;;;;;;;21.46;32.66;101478.91;5034021;28;20059;-72
2022/05/30 08:12:32;;;;;;;3.78;0.82;;;;;;;22.20;32.31;101488.75;5033265;28;20029;-71
2022/05/30 08:14:58;;;;;;;0.85;0.40;;;;;;;21.38;33.52;101486.34;5014150;28;20383;-71
2022/05/30 08:17:24;;;;;;;2.70;0.60;;;;;;;21.56;33.00;101479.38;5025366;28;20101;-71
2022/05/30 08:19:50;;;;;;;1.17;0.55;;;;;;;21.23;32.74;101481.75;5026382;28;20033;-71
2022/05/30 08:22:16;;;;;;;1.83;0.50;;;;;;;21.04;33.93;101493.16;5029214;28;20120;-72
2022/05/30 08:24:44;;;;;;;3.72;0.47;;;;;;;20.85;34.09;101498.41;5031783;28;20037;-71
2022/05/30 08:27:09;;;;;;;2.10;0.40;;;;;;;19.95;35.53;101501.16;5029774;28;20108;-71
2022/05/30 08:29:35;;;;;;;1.67;0.63;;;;;;;19.80;36.09;101503.47;5031169;28;20561;-71
2022/05/30 08:32:00;;;;;;;5.90;0.95;;;;;;;21.07;33.86;101503.66;5031396;28;20056;-72
2022/05/30 08:34:26;;;;;;;1.98;0.80;;;;;;;21.30;34.40;101501.78;5032062;28;20036;-72
2022/05/30 08:36:52;;;;;;;0.70;0.45;;;;;;;20.69;34.61;101508.84;5033181;28;20397;-72
2022/05/30 08:42:03;;;;;;;2.65;0.60;;;;;;;21.01;34.19;101509.25;5030855;28;20191;-72
2022/05/30 08:44:29;;;;;;;3.67;1.08;;;;;;;21.57;33.90;101506.81;5032223;28;20030;-72
2022/05/30 08:47:12;;;;;;;4.40;0.85;;;;;;;20.37;33.60;101512.78;5024963;28;20037;-72
2022/05/30 08:49:41;;;;;;;;;;;;;;;22.63;32.41;101508.94;5033189;28;20033;-72
2022/05/30 08:52:28;;;;;;;3.35;0.40;;;;;;;21.52;31.23;101512.31;5059417;28;19989;-71
2022/05/30 08:55:02;;;;;;;2.72;0.60;;;;;;;21.05;32.82;101516.16;5029357;28;20037;-71
2022/05/30 08:57:33;;;;;;;1.17;0.75;;;;;;;21.50;31.20;101507.06;5033180;28;20033;-72
2022/05/30 09:00:09;;;;;;;4.47;0.57;;;;;;;23.10;30.19;101507.44;5031358;28;20389;-71
2022/05/30 09:02:47;;;;;;;3.28;0.60;;;;;;;23.14;29.06;101493.03;5030783;28;20037;-72
2022/05/30 09:05:38;;;;;;;5.82;0.60;;;;;;;24.00;28.99;101498.19;5028304;28;20029;-72
2022/05/30 09:08:09;;;;;;;2.13;0.30;;;;;;;23.44;29.42;101509.19;5031531;28;20017;-72
2022/05/30 09:10:34;;;;;;;1.20;0.60;;;;;;;25.11;28.10;101507.78;5016532;28;20025;-72
2022/05/30 09:13:10;;;;;;;2.40;1.17;;;;;;;23.96;29.05;101507.31;5063642;28;20037;-72
2022/05/30 09:15:43;;;;;;;2.40;0.30;;;;;;;25.64;27.28;101499.25;5033009;28;20124;-72
2022/05/30 09:18:09;;;;;;;;;;;;;;;25.16;27.09;101515.53;5026531;28;20117;-71
2022/05/30 09:20:36;;;;;;;2.13;0.47;;;;;;;26.40;25.73;101508.63;5031057;28;20012;-72
2022/05/30 09:23:03;;;;;;;4.78;0.50;;;;;;;25.55;26.22;101508.69;5030850;28;20184;-72
2022/05/30 09:25:56;;;;;;;2.38;0.50;;;;;;;24.48;27.41;101517.72;5031064;28;20033;-71
2022/05/30 09:28:23;;;;;;;1.08;0.35;;;;;;;24.40;27.48;101517.28;5030011;28;20926;-71
2022/05/30 09:30:49;;;;;;;1.33;0.40;;;;;;;23.05;28.57;101523.66;5031340;28;20034;-72
2022/05/30 09:33:32;;;;;;;2.80;0.63;;;;;;;24.08;28.80;101511.97;5030175;28;20096;-72
2022/05/30 09:36:21;;;;;;;1.90;0.40;;;;;;;24.47;28.26;101513.31;5031976;28;20041;-71
2022/05/30 09:39:00;;;;;;;1.33;0.20;;;;;;;24.04;26.25;101513.97;5030357;28;20474;-71
2022/05/30 09:41:30;;;;;;;2.08;1.15;;;;;;;25.19;27.17;101518.88;5031763;28;20033;-72
2022/05/30 09:44:01;;;;;;;0.75;0.40;;;;;;;26.22;25.36;101500.84;5027736;28;20424;-71
2022/05/30 09:46:39;;;;;;;1.20;0.30;;;;;;;25.53;26.68;101513.28;5030520;28;20040;-73
2022/05/30 09:49:13;;;;;;;1.50;0.30;;;;;;;25.61;24.92;101511.00;5032076;28;20092;-72
2022/05/30 09:51:45;;;;;;;2.35;0.63;;;;;;;26.58;23.83;101507.41;5031861;28;20026;-71
2022/05/30 09:54:31;;;;;;;0.70;0.40;;;;;;;26.32;23.78;101508.28;5022159;28;21477;-71
2022/05/30 09:57:06;;;;;;;0.63;0.47;;;;;;;26.54;24.14;101513.94;5026036;28;20062;-72
2022/05/30 09:59:52;;;;;;;4.22;1.25;;;;;;;27.30;23.47;101502.56;5020600;28;20041;-72
2022/05/30 10:03:03;;;;;;;1.55;0.25;;;;;;;27.74;22.39;101496.75;5018410;28;20477;-71
2022/05/30 10:05:31;;;;;;;2.08;0.57;;;;;;;27.45;22.90;101501.53;4983009;28;20075;-72
2022/05/30 10:08:02;;;;;;;1.95;0.50;;;;;;;28.18;22.57;101509.72;5030941;28;20427;-71
2022/05/30 10:10:40;;;;;;;1.58;0.38;;;;;;;29.13;21.58;101503.47;5032288;28;20026;-71
2022/05/30 10:13:08;;;;;;;1.77;0.50;;;;;;;29.32;21.89;101505.59;5027690;28;20379;-71
2022/05/30 10:15:38;;;;;;;2.72;0.30;;;;;;;28.15;21.84;101510.84;5029761;28;20116;-71
2022/05/30 10:18:12;;;;;;;1.90;0.55;;;;;;;25.97;24.62;101520.31;5016020;28;20037;-71
2022/05/30 10:21:23;;;;;;;1.05;0.35;;;;;;;26.68;22.72;101522.84;5018643;28;20040;-72
2022/05/30 10:30:28;;;;;;;1.13;0.40;;;;;;;26.22;23.06;101529.47;5031386;28;19928;-71
2022/05/30 10:32:53;;;;;;;1.20;0.32;;;;;;;26.65;23.05;101525.75;5018424;28;20029;-72
2022/05/30 10:35:31;;;;;;;1.40;0.40;;;;;;;26.84;22.74;101523.56;5029340;28;20036;-71
2022/05/30 10:38:19;;;;;;;1.55;0.50;;;;;;;25.47;24.62;101530.59;5028312;28;20117;-71
2022/05/30 10:41:01;;;;;;;1.98;0.40;;;;;;;25.79;25.26;101541.09;5034276;28;20482;-72
2022/05/30 10:43:57;;;;;;;0.45;0.25;;;;;;;25.82;24.30;101540.88;5033490;28;20033;-71
2022/05/30 10:46:47;;;;;;;2.08;0.57;;;;;;;24.52;25.08;101543.31;5032476;28;20025;-71
2022/05/30 10:49:16;;;;;;;2.08;0.43;;;;;;;25.63;24.93;101545.69;5013117;28;20022;-71
2022/05/30 10:51:57;;;;;;;3.40;0.40;;;;;;;25.33;24.96;101549.31;5073113;28;20464;-71
2022/05/30 10:54:37;;;;;;;0.90;0.40;;;;;;;23.06;26.98;101554.69;5033489;28;20040;-72
2022/05/30 10:57:17;;;;;;;1.70;0.50;;;;;;;24.84;27.04;101547.72;5030391;28;20470;-71
2022/05/30 10:59:49;;;;;;;0.65;0.40;;;;;;;23.87;28.14;101554.03;5034721;28;20087;-72
2022/05/30 11:02:21;;;;;;;3.22;0.63;;;;;;;23.53;28.23;101546.06;5032636;28;20037;-71
2022/05/30 11:05:01;;;;;;;12.40;0.95;;;;;;;24.19;28.06;101549.63;5032400;28;20071;-71
2022/05/30 11:07:32;;;;;;;18.63;2.05;;;;;;;23.95;29.00;101553.66;5032015;28;20033;-71
2022/05/30 11:10:17;;;;;;;4.40;1.00;;;;;;;23.61;28.30;101545.63;5031993;28;20083;-72
2022/05/30 11:12:50;;;;;;;2.80;1.15;;;;;;;24.69;29.31;101545.00;5015884;28;20039;-71
2022/05/30 11:15:54;;;;;;;1.58;0.55;;;;;;;22.97;29.51;101544.50;5033489;28;20037;-71
2022/05/30 11:18:39;;;;;;;8.00;0.90;;;;;;;24.89;27.95;101546.53;5012012;28;20034;-71
2022/05/30 11:21:27;;;;;;;1.25;0.47;;;;;;;24.24;29.21;101548.50;5012021;28;20026;-71
2022/05/30 11:23:53;;;;;;;3.83;0.60;;;;;;;24.64;29.93;101552.44;5027238;28;20416;-71
2022/05/30 11:26:24;;;;;;;2.63;0.55;;;;;;;25.22;29.56;101548.13;5033622;28;20030;-71
2022/05/30 11:29:24;;;;;;;1.70;0.85;;;;;;;25.12;29.19;101546.94;5034168;28;20049;-71
2022/05/30 11:31:55;;;;;;;12.70;2.40;;;;;;;24.24;29.60;101535.16;5024724;28;20091;-71
2022/05/30 11:34:36;;;;;;;2.15;0.98;;;;;;;23.55;31.27;101541.50;5033603;28;20029;-71
2022/05/30 11:37:19;;;;;;;1.08;0.68;;;;;;;23.71;30.40;101535.31;5023511;28;20045;-71
2022/05/30 11:40:13;;;;;;;2.20;0.38;;;;;;;24.78;28.89;101538.25;5043767;28;20115;-72
2022/05/30 11:43:07;;;;;;;1.20;0.40;;;;;;;25.00;29.65;101537.00;5038435;28;20025;-71
2022/05/30 11:45:48;;;;;;;2.90;0.70;;;;;;;25.60;27.95;101529.84;5023151;28;20038;-71
2022/05/30 11:48:22;;;;;;;4.50;0.60;;;;;;;24.48;27.69;101539.09;5045893;28;20029;-72
2022/05/30 11:50:50;;;;;;;3.50;0.50;;;;;;;25.89;27.04;101536.84;5034217;28;20309;-72
2022/05/30 11:53:24;;;;;;;3.47;1.33;;;;;;;24.14;28.63;101541.00;5053439;28;20033;-72